Time;durP1;ratioP1;P1;durP2;ratioP2;P2;SDS_P1;SDS_P2;PMS_P1;PMS_P2;Temp;Humidity;BMP_temperature;BMP_pressure;BME280_temperature;BME280_humidity;BME280_pressure;Samples;Min_cycle;Max_cycle;Signal;HPM_P1;HPM_P2
2023/03/16 00:00:13;414844.00;1.38;715.33;88368.00;0.29;153.49;;;;;9.00;1.00;;;;;;2264077;61;1310;-84
2023/03/16 00:02:41;461298.00;1.54;795.22;96060.00;0.32;166.77;;;;;9.00;1.00;;;;;;2264022;61;1027;-85
2023/03/16 00:05:11;388820.00;1.30;670.59;0.00;0.00;0.62;;;;;9.10;1.00;;;;;;2263879;61;1107;-86
2023/03/16 00:07:38;149703.00;0.50;259.30;0.00;0.00;0.62;;;;;9.40;1.00;;;;;;2263918;61;984;-86
2023/03/16 00:10:06;136565.00;0.46;236.65;0.00;0.00;0.62;;;;;9.90;1.00;;;;;;2263982;61;1916;-87
2023/03/16 00:12:34;256183.00;0.85;442.58;0.00;0.00;0.62;;;;;10.20;1.00;;;;;;2264025;61;998;-84
2023/03/16 00:15:01;325739.00;1.09;562.16;0.00;0.00;0.62;;;;;10.10;1.00;;;;;;2263879;61;923;-89
2023/03/16 00:20:10;430933.00;1.44;742.99;0.00;0.00;0.62;;;;;9.20;1.00;;;;;;1549783;60;2862;-87
2023/03/16 00:25:06;969915.00;3.23;1679.26;0.00;0.00;0.62;;;;;7.70;1.00;;;;;;2261314;61;1318;-87
2023/03/16 00:27:33;562741.00;1.88;969.93;0.00;0.00;0.62;;;;;6.90;1.00;;;;;;2259897;61;1633;-87
2023/03/16 00:30:02;593141.00;1.98;1022.38;0.00;0.00;0.62;;;;;6.50;1.00;;;;;;2259873;61;1998;-88
2023/03/16 00:32:31;467299.00;1.56;805.54;0.00;0.00;0.62;;;;;6.50;1.00;;;;;;2259798;61;1663;-88
2023/03/16 00:35:00;273043.00;0.91;471.58;0.00;0.00;0.62;;;;;6.30;1.00;;;;;;2259913;61;1040;-87
2023/03/16 00:37:30;449094.00;1.50;774.22;0.00;0.00;0.62;;;;;6.10;1.00;;;;;;2259978;61;959;-87
2023/03/16 00:39:57;848800.00;2.83;1466.37;0.00;0.00;0.62;;;;;6.10;1.00;;;;;;2259604;61;1727;-88
2023/03/16 00:42:26;521203.00;1.74;898.34;0.00;0.00;0.62;;;;;5.90;1.00;;;;;;2259975;61;1037;-88
2023/03/16 00:44:56;575715.00;1.92;992.31;27008.00;0.09;47.40;;;;;5.90;1.00;;;;;;2259937;61;1086;-90
2023/03/16 00:47:24;363115.00;1.21;626.40;0.00;0.00;0.62;;;;;5.80;1.00;;;;;;2259941;61;999;-86
2023/03/16 00:49:51;635485.00;2.12;1095.53;33435.00;0.11;58.53;;;;;5.90;1.00;;;;;;2259787;61;1998;-87
2023/03/16 00:52:18;488267.00;1.63;841.63;0.00;0.00;0.62;;;;;5.90;1.00;;;;;;2259946;61;989;-86
2023/03/16 00:54:47;591311.00;1.97;1019.22;65746.00;0.22;114.41;;;;;5.60;1.00;;;;;;2259768;61;1124;-87
2023/03/16 00:57:17;385238.00;1.28;664.43;0.00;0.00;0.62;;;;;5.40;1.00;;;;;;2259885;61;1135;-87
2023/03/16 00:59:45;285688.00;0.95;493.32;0.00;0.00;0.62;;;;;5.50;1.00;;;;;;2259847;61;1314;-89
2023/03/16 01:02:12;489049.00;1.63;842.97;0.00;0.00;0.62;;;;;5.50;1.00;;;;;;2259826;61;1242;-86
2023/03/16 01:04:41;343369.00;1.14;592.46;0.00;0.00;0.62;;;;;5.40;1.00;;;;;;2259709;61;1057;-87
2023/03/16 01:07:09;803044.00;2.68;1386.43;36316.00;0.12;63.51;;;;;5.50;1.00;;;;;;2286569;41;3630;-87
2023/03/16 01:09:36;310949.00;1.04;536.74;0.00;0.00;0.62;;;;;5.50;1.00;;;;;;2263818;61;1923;-86
2023/03/16 01:12:07;305973.00;1.02;528.19;0.00;0.00;0.62;;;;;5.60;1.00;;;;;;2263879;61;905;-90
2023/03/16 01:14:35;308377.00;1.03;532.32;0.00;0.00;0.62;;;;;5.40;1.00;;;;;;2263846;61;1010;-87
2023/03/16 01:17:03;547511.00;1.83;943.67;3706.00;0.01;7.04;;;;;5.00;1.00;;;;;;2263803;61;967;-87
2023/03/16 01:19:32;432080.00;1.44;744.96;0.00;0.00;0.62;;;;;4.90;1.00;;;;;;2263828;61;1306;-87
2023/03/16 01:22:00;460628.00;1.54;794.07;0.00;0.00;0.62;;;;;4.60;1.00;;;;;;2263771;61;1620;-86
2023/03/16 01:24:27;629132.00;2.10;1084.55;40398.00;0.13;70.58;;;;;4.30;1.00;;;;;;2263736;61;986;-87
2023/03/16 01:26:54;708497.00;2.36;1221.98;35368.00;0.12;61.87;;;;;4.00;1.00;;;;;;2263627;61;1674;-86
2023/03/16 01:29:24;549024.00;1.83;946.28;0.00;0.00;0.62;;;;;4.20;1.00;;;;;;2263641;61;2006;-86
2023/03/16 01:31:51;678930.00;2.26;1170.72;68988.00;0.23;120.01;;;;;4.30;1.00;;;;;;2263770;61;1111;-86
2023/03/16 01:34:18;494352.00;1.65;852.10;0.00;0.00;0.62;;;;;4.50;1.00;;;;;;2263536;61;956;-87
2023/03/16 01:36:47;646252.00;2.15;1114.15;0.00;0.00;0.62;;;;;4.40;1.00;;;;;;2267775;41;3678;-85
2023/03/16 01:39:15;415903.00;1.39;717.15;0.00;0.00;0.62;;;;;4.50;1.00;;;;;;2263724;61;1328;-87
2023/03/16 01:41:44;490929.00;1.64;846.21;0.00;0.00;0.62;;;;;4.40;1.00;;;;;;2263643;61;1031;-86
2023/03/16 01:46:43;1106923.00;3.69;1922.81;0.00;0.00;0.62;;;;;4.10;1.00;;;;;;2261105;61;1438;-88
2023/03/16 01:51:43;804159.00;2.68;1388.38;0.00;0.00;0.62;;;;;4.20;1.00;;;;;;2261503;61;1967;-86
2023/03/16 01:54:20;417608.00;1.39;720.08;0.00;0.00;0.62;;;;;4.10;1.00;;;;;;2259597;61;962;-86
2023/03/16 01:56:56;383845.00;1.28;662.03;0.00;0.00;0.62;;;;;4.20;1.00;;;;;;2259694;61;1030;-86
2023/03/16 02:01:55;909165.00;3.03;1572.22;0.00;0.00;0.62;;;;;4.30;1.00;;;;;;2257456;61;1253;-86
2023/03/16 02:04:31;728847.00;2.43;1257.30;0.00;0.00;0.62;;;;;4.50;1.00;;;;;;2255686;61;1025;-88
2023/03/16 02:07:00;685859.00;2.29;1182.72;0.00;0.00;0.62;;;;;4.60;1.00;;;;;;2255850;61;1772;-87
2023/03/16 02:09:29;645679.00;2.15;1113.16;0.00;0.00;0.62;;;;;4.20;1.00;;;;;;2256328;61;1379;-87
2023/03/16 02:11:57;1136421.00;3.79;1975.68;33254.00;0.11;58.22;;;;;4.00;1.00;;;;;;2256314;61;2021;-88
2023/03/16 02:14:23;1264924.00;4.22;2208.05;63292.00;0.21;110.17;;;;;4.20;1.00;;;;;;2256207;61;1035;-87
2023/03/16 02:16:54;1080359.00;3.60;1875.33;28474.00;0.09;49.94;;;;;4.10;1.00;;;;;;2256405;61;1737;-90
2023/03/16 02:19:35;972657.00;3.24;1684.10;42640.00;0.14;74.46;;;;;3.80;1.00;;;;;;2256285;61;1302;-86
2023/03/16 02:22:06;931393.00;3.10;1611.32;121614.00;0.41;210.87;;;;;3.90;1.00;;;;;;2256361;61;1055;-87
2023/03/16 02:24:33;871705.00;2.91;1506.48;3642.00;0.01;6.93;;;;;4.00;1.00;;;;;;2256285;61;994;-87
2023/03/16 02:27:04;1446959.00;4.82;2543.71;145196.00;0.48;251.53;;;;;4.10;1.00;;;;;;2256190;61;998;-86
2023/03/16 02:29:54;1324535.00;4.42;2317.08;83743.00;0.28;145.50;;;;;4.00;1.00;;;;;;2256129;61;1430;-86
2023/03/16 02:32:24;1648298.00;5.49;2925.40;143207.00;0.48;248.10;;;;;4.20;1.00;;;;;;2256271;61;1070;-86
2023/03/16 02:37:20;1977018.00;6.59;3577.24;151221.00;0.50;261.91;;;;;4.00;1.00;;;;;;2262940;61;1317;-87
2023/03/16 02:39:47;1261698.00;4.21;2202.18;116140.00;0.39;201.42;;;;;3.90;1.00;;;;;;2260234;61;1276;-87
2023/03/16 02:42:20;1098608.00;3.66;1907.93;36688.00;0.12;64.16;;;;;3.90;1.00;;;;;;2260166;61;1048;-86
2023/03/16 02:44:53;1011245.00;3.37;1752.40;101015.00;0.34;175.32;;;;;4.10;1.00;;;;;;2260274;61;1648;-88
2023/03/16 02:47:28;1062315.00;3.54;1843.16;103395.00;0.34;179.43;;;;;4.20;1.00;;;;;;2260295;61;949;-87
2023/03/16 02:49:55;1103172.00;3.68;1916.10;104960.00;0.35;182.13;;;;;4.10;1.00;;;;;;2260230;61;1994;-86
2023/03/16 02:52:22;848017.00;2.83;1465.00;101203.00;0.34;175.65;;;;;3.50;1.00;;;;;;2259955;61;1598;-87
2023/03/16 02:54:49;255174.00;0.85;440.85;0.00;0.00;0.62;;;;;3.30;1.00;;;;;;2260260;61;1009;-86
2023/03/16 02:57:16;432225.00;1.44;745.21;0.00;0.00;0.62;;;;;3.20;1.00;;;;;;2268409;55;3749;-87
2023/03/16 02:59:43;117525248.00;391.75;65754172.00;37365.00;0.12;65.33;;;;;3.10;1.00;;;;;;2266720;40;3592;-86
2023/03/16 03:02:12;372859.00;1.24;643.15;0.00;0.00;0.62;;;;;3.20;1.00;;;;;;2264146;61;1701;-88
2023/03/16 03:04:38;469807.00;1.57;809.86;0.00;0.00;0.62;;;;;3.50;1.00;;;;;;2264014;61;1097;-86
2023/03/16 03:07:05;450946.00;1.50;777.41;22796.00;0.08;40.11;;;;;3.60;1.00;;;;;;2264159;61;940;-87
2023/03/16 03:09:32;596808.00;1.99;1028.71;0.00;0.00;0.62;;;;;3.70;1.00;;;;;;2264235;61;1570;-88
2023/03/16 03:12:00;358780.00;1.20;618.95;0.00;0.00;0.62;;;;;3.90;1.00;;;;;;2269477;40;3606;-86
2023/03/16 03:14:28;341435.00;1.14;589.14;0.00;0.00;0.62;;;;;4.00;1.00;;;;;;2264060;61;1044;-88
2023/03/16 03:16:55;539243.00;1.80;929.42;10968.00;0.04;19.63;;;;;4.10;1.00;;;;;;2264169;61;1666;-87
2023/03/16 03:19:24;554077.00;1.85;954.99;5193.00;0.02;9.62;;;;;3.90;1.00;;;;;;2264158;61;1407;-87
2023/03/16 03:21:55;517660.00;1.73;892.23;0.00;0.00;0.62;;;;;3.70;1.00;;;;;;2263988;61;1027;-89
2023/03/16 03:24:23;371059.00;1.24;640.06;0.00;0.00;0.62;;;;;3.60;1.00;;;;;;2264047;61;1166;-87
2023/03/16 03:26:50;424034.00;1.41;731.13;0.00;0.00;0.62;;;;;3.60;1.00;;;;;;2264155;61;1004;-87
2023/03/16 03:29:18;355003.00;1.18;612.46;0.00;0.00;0.62;;;;;3.70;1.00;;;;;;2264070;61;1574;-87
2023/03/16 03:31:44;440340.00;1.47;759.17;0.00;0.00;0.62;;;;;3.80;1.00;;;;;;2264041;61;1911;-88
2023/03/16 03:34:11;352664.00;1.18;608.44;0.00;0.00;0.62;;;;;3.90;1.00;;;;;;2263900;61;1043;-87
2023/03/16 03:36:41;286888.00;0.96;495.38;0.00;0.00;0.62;;;;;3.90;1.00;;;;;;2264132;61;1095;-87
2023/03/16 03:39:08;630967.00;2.10;1087.72;25805.00;0.09;45.32;;;;;3.90;1.00;;;;;;2264012;61;1046;-87
2023/03/16 03:41:34;628955.00;2.10;1084.24;25498.00;0.08;44.79;;;;;3.80;1.00;;;;;;2263986;61;1261;-87
2023/03/16 03:44:01;314428.00;1.05;542.72;0.00;0.00;0.62;;;;;3.50;1.00;;;;;;2264171;61;993;-86
2023/03/16 03:46:28;444414.00;1.48;766.17;0.00;0.00;0.62;;;;;3.50;1.00;;;;;;2263942;61;1603;-88
2023/03/16 03:49:00;422703.00;1.41;728.84;37740.00;0.13;65.98;;;;;3.50;1.00;;;;;;2264036;61;1772;-87
2023/03/16 03:51:27;413346.00;1.38;712.75;0.00;0.00;0.62;;;;;3.60;1.00;;;;;;2264051;61;2007;-87
2023/03/16 03:53:56;340412.00;1.13;587.38;0.00;0.00;0.62;;;;;3.50;1.00;;;;;;2264061;61;867;-87
2023/03/16 03:56:22;195019.00;0.65;337.35;0.00;0.00;0.62;;;;;3.70;1.00;;;;;;2264037;61;1059;-87
2023/03/16 03:58:49;326334.00;1.09;563.19;0.00;0.00;0.62;;;;;3.60;1.00;;;;;;2263983;61;1073;-86
2023/03/16 04:01:17;457541.00;1.53;788.75;0.00;0.00;0.62;;;;;3.60;1.00;;;;;;2263907;61;1309;-87
2023/03/16 04:03:44;336605.00;1.12;580.84;0.00;0.00;0.62;;;;;3.80;1.00;;;;;;2264274;61;1112;-87
2023/03/16 04:06:10;497854.00;1.66;858.13;9833.00;0.03;17.66;;;;;3.70;1.00;;;;;;2264226;61;1042;-87
2023/03/16 04:08:38;290397.00;0.97;501.41;0.00;0.00;0.62;;;;;3.20;1.00;;;;;;2264313;61;1042;-86
2023/03/16 04:11:06;337309.00;1.12;582.05;0.00;0.00;0.62;;;;;3.10;1.00;;;;;;2264104;61;1990;-86
2023/03/16 04:13:33;645038.00;2.15;1112.05;0.00;0.00;0.62;;;;;3.30;1.00;;;;;;2268904;55;3668;-88
2023/03/16 04:16:02;577852.00;1.93;995.99;19195.00;0.06;33.88;;;;;3.20;1.00;;;;;;2268918;55;3789;-87
2023/03/16 04:18:29;451980.00;1.51;779.19;0.00;0.00;0.62;;;;;3.10;1.00;;;;;;2264188;61;918;-88
2023/03/16 04:20:56;416305.00;1.39;717.84;0.00;0.00;0.62;;;;;3.20;1.00;;;;;;2264148;61;1310;-90
2023/03/16 04:23:24;380834.00;1.27;656.86;0.00;0.00;0.62;;;;;3.30;1.00;;;;;;2264223;61;1697;-87
2023/03/16 04:25:51;302180.00;1.01;521.67;0.00;0.00;0.62;;;;;3.10;1.00;;;;;;2264269;61;1015;-88
2023/03/16 04:28:20;402815.00;1.34;694.64;0.00;0.00;0.62;;;;;3.10;1.00;;;;;;2264109;61;1019;-87
2023/03/16 04:30:46;461844.00;1.54;796.16;0.00;0.00;0.62;;;;;3.20;1.00;;;;;;2264028;61;1998;-88
2023/03/16 04:33:14;510433.00;1.70;879.79;20639.00;0.07;36.38;;;;;3.00;1.00;;;;;;2264279;61;988;-87
2023/03/16 04:35:41;290597.00;0.97;501.76;0.00;0.00;0.62;;;;;3.00;1.00;;;;;;2264176;61;1526;-87
2023/03/16 04:38:09;220057.00;0.73;380.44;0.00;0.00;0.62;;;;;3.00;1.00;;;;;;2264068;61;1079;-87
2023/03/16 04:40:36;504755.00;1.68;870.01;0.00;0.00;0.62;;;;;3.10;1.00;;;;;;2264029;61;1608;-86
2023/03/16 04:43:03;386274.00;1.29;666.21;18315.00;0.06;32.35;;;;;3.40;1.00;;;;;;2264251;61;1006;-85
2023/03/16 04:45:32;285020.00;0.95;492.17;0.00;0.00;0.62;;;;;3.30;1.00;;;;;;2264367;61;945;-86
2023/03/16 04:47:59;369747.00;1.23;637.80;0.00;0.00;0.62;;;;;3.40;1.00;;;;;;2264132;61;1765;-87
2023/03/16 04:50:26;280459.00;0.93;484.33;0.00;0.00;0.62;;;;;3.30;1.00;;;;;;2264103;61;2022;-88
2023/03/16 04:55:23;833430.00;2.78;1439.49;0.00;0.00;0.62;;;;;3.20;1.00;;;;;;2262078;61;1243;-87
2023/03/16 04:57:51;351749.00;1.17;606.87;0.00;0.00;0.62;;;;;2.90;1.00;;;;;;2264129;40;3578;-87
2023/03/16 05:00:20;303525.00;1.01;523.98;0.00;0.00;0.62;;;;;2.90;1.00;;;;;;2264141;61;1611;-88
2023/03/16 05:05:17;582533.00;1.94;1004.07;0.00;0.00;0.62;;;;;3.10;1.00;;;;;;2262396;61;1307;-88
2023/03/16 05:07:44;269935.00;0.90;466.23;0.00;0.00;0.62;;;;;3.30;1.00;;;;;;2260186;61;2328;-87
2023/03/16 05:10:14;341907.00;1.14;589.95;0.00;0.00;0.62;;;;;3.00;1.00;;;;;;2260121;61;1387;-88
2023/03/16 05:12:41;440427.00;1.47;759.32;0.00;0.00;0.62;;;;;3.10;1.00;;;;;;2260026;61;1993;-86
2023/03/16 05:15:09;256230.00;0.85;442.67;0.00;0.00;0.62;;;;;3.10;1.00;;;;;;2260111;61;1087;-90
2023/03/16 05:17:36;411680.00;1.37;709.89;0.00;0.00;0.62;;;;;3.30;1.00;;;;;;2260108;61;1024;-88
2023/03/16 05:20:12;727651.00;2.43;1255.22;0.00;0.00;0.62;;;;;3.40;1.00;;;;;;2259637;61;2247;-87
2023/03/16 05:22:43;260670.00;0.87;450.30;0.00;0.00;0.62;;;;;3.30;1.00;;;;;;2260125;61;1185;-88
2023/03/16 05:25:13;322691.00;1.08;556.92;0.00;0.00;0.62;;;;;3.20;1.00;;;;;;2260245;61;903;-88
2023/03/16 05:27:41;353386.00;1.18;609.68;0.00;0.00;0.62;;;;;3.30;1.00;;;;;;2260009;61;1087;-86
2023/03/16 05:30:10;379162.00;1.26;653.98;0.00;0.00;0.62;;;;;3.10;1.00;;;;;;2260023;61;1307;-87
2023/03/16 05:32:37;420764.00;1.40;725.50;0.00;0.00;0.62;;;;;3.10;1.00;;;;;;2259953;61;2014;-87
2023/03/16 05:37:31;672027.00;2.24;1158.76;0.00;0.00;0.62;;;;;3.00;1.00;;;;;;2261776;61;1412;-87
2023/03/16 05:40:00;417360.00;1.39;719.65;0.00;0.00;0.62;;;;;3.00;1.00;;;;;;2260073;61;1282;-86
2023/03/16 05:42:27;259109.00;0.86;447.62;0.00;0.00;0.62;;;;;3.10;1.00;;;;;;2260398;61;1042;-87
2023/03/16 05:44:54;241175.00;0.80;416.77;0.00;0.00;0.62;;;;;2.80;1.00;;;;;;2260836;61;895;-86
2023/03/16 05:47:21;436105.00;1.45;751.88;0.00;0.00;0.62;;;;;3.00;1.00;;;;;;2260733;61;2233;-89
2023/03/16 05:49:48;416848.00;1.39;718.77;0.00;0.00;0.62;;;;;2.90;1.00;;;;;;2260743;61;1735;-87
2023/03/16 05:52:14;327827.00;1.09;565.75;0.00;0.00;0.62;;;;;3.00;1.00;;;;;;2260652;61;1996;-87
2023/03/16 05:54:42;418538.00;1.40;721.68;0.00;0.00;0.62;;;;;3.00;1.00;;;;;;2260672;61;928;-86
2023/03/16 05:57:11;280950.00;0.94;485.17;0.00;0.00;0.62;;;;;3.00;1.00;;;;;;2260747;61;1031;-87
2023/03/16 05:59:37;206351.00;0.69;356.86;0.00;0.00;0.62;;;;;3.30;1.00;;;;;;2260492;61;1731;-87
2023/03/16 06:02:05;415328.00;1.38;716.16;0.00;0.00;0.62;;;;;3.10;1.00;;;;;;2260664;61;1738;-88
2023/03/16 06:04:32;443210.00;1.48;764.10;0.00;0.00;0.62;;;;;3.20;1.00;;;;;;2260580;61;922;-87
2023/03/16 06:11:55;1513848.00;5.05;2669.20;177585.00;0.59;307.33;;;;;3.80;1.00;;;;;;2262477;61;1904;-87
2023/03/16 06:14:24;1132241.00;3.77;1968.18;99108.00;0.33;172.03;;;;;4.10;1.00;;;;;;2260538;61;1531;-88
2023/03/16 06:16:51;1197249.00;3.99;2085.25;58314.00;0.19;101.56;;;;;4.50;1.00;;;;;;2260459;61;1082;-87
2023/03/16 06:19:18;1250051.00;4.17;2180.98;49595.00;0.17;86.49;;;;;5.00;1.00;;;;;;2260523;61;1301;-88
2023/03/16 06:21:45;1147996.00;3.83;1996.47;102461.00;0.34;177.82;;;;;5.60;1.00;;;;;;2260589;61;1675;-88
2023/03/16 06:24:12;653437.00;2.18;1126.58;105023.00;0.35;182.24;;;;;5.70;1.00;;;;;;2260561;61;1614;-88
2023/03/16 06:26:39;457832.00;1.53;789.26;117420.00;0.39;203.63;;;;;6.00;1.00;;;;;;2260467;61;1005;-88
2023/03/16 06:29:06;117313840.00;391.05;65399660.00;0.00;0.00;0.62;;;;;6.60;1.00;;;;;;2260356;61;1546;-88
2023/03/16 06:31:34;306413.00;1.02;528.94;4082.00;0.01;7.69;;;;;6.50;1.00;;;;;;2260113;61;1996;-89
2023/03/16 06:34:01;572300.00;1.91;986.41;0.00;0.00;0.62;;;;;5.90;1.00;;;;;;2260503;61;1474;-87
2023/03/16 06:38:56;989314.00;3.30;1713.55;0.00;0.00;0.62;;;;;6.00;1.00;;;;;;2261656;61;1338;-87
2023/03/16 06:41:23;551085.00;1.84;949.83;148.00;0.00;0.88;;;;;6.60;1.00;;;;;;2247149;55;1149833;-88
2023/03/16 06:43:53;272296.00;0.91;470.29;0.00;0.00;0.62;;;;;6.80;1.00;;;;;;2260290;61;1108;-89
2023/03/16 06:48:50;761547.00;2.54;1314.14;0.00;0.00;0.62;;;;;8.10;1.00;;;;;;2258102;61;1350;-88
2023/03/16 06:53:51;822429.00;2.74;1420.27;0.00;0.00;0.62;;;;;9.10;1.00;;;;;;2262090;61;1387;-87
2023/03/16 07:01:19;716920.00;2.39;1236.59;0.00;0.00;0.62;;;;;10.30;1.00;;;;;;2274427;40;3599;-86
2023/03/16 07:06:19;627193.00;2.09;1081.20;0.00;0.00;0.62;;;;;10.90;1.00;;;;;;2262162;61;1402;-88
2023/03/16 07:11:17;607484.00;2.02;1047.14;0.00;0.00;0.62;;;;;11.00;1.00;;;;;;2262090;61;1983;-88
2023/03/16 07:13:45;465475.00;1.55;802.40;0.00;0.00;0.62;;;;;10.60;1.00;;;;;;2260280;61;1253;-88
2023/03/16 07:16:12;190501.00;0.64;329.57;0.00;0.00;0.62;;;;;10.60;1.00;;;;;;2260382;61;969;-89
2023/03/16 07:18:43;234045.00;0.78;404.51;0.00;0.00;0.62;;;;;10.70;1.00;;;;;;2260209;61;1717;-88
2023/03/16 07:21:10;274174.00;0.91;473.52;0.00;0.00;0.62;;;;;9.90;1.00;;;;;;2260332;61;1357;-87
2023/03/16 07:23:39;203740.00;0.68;352.36;0.00;0.00;0.62;;;;;9.50;1.00;;;;;;2260238;61;1708;-87
2023/03/16 07:26:07;259887.00;0.87;448.95;0.00;0.00;0.62;;;;;9.80;1.00;;;;;;2260439;61;1597;-87
2023/03/16 07:28:35;274954.00;0.92;474.86;0.00;0.00;0.62;;;;;10.00;1.00;;;;;;2260258;61;1787;-87
2023/03/16 07:31:02;262992.00;0.88;454.29;0.00;0.00;0.62;;;;;10.30;1.00;;;;;;2260259;61;1573;-87
2023/03/16 07:33:29;371428.00;1.24;640.69;18487.00;0.06;32.65;;;;;10.20;1.00;;;;;;2260141;61;2030;-89
2023/03/16 07:35:56;467531.00;1.56;805.94;0.00;0.00;0.62;;;;;10.40;1.00;;;;;;2260117;61;1729;-88
2023/03/16 07:38:23;416668.00;1.39;718.46;0.00;0.00;0.62;;;;;10.30;1.00;;;;;;2324203;40;3615;-90
2023/03/16 07:43:25;690929.00;2.30;1191.51;0.00;0.00;0.62;;;;;10.30;1.00;;;;;;2261717;61;1265;-88
2023/03/16 07:45:53;417787.00;1.39;720.39;0.00;0.00;0.62;;;;;10.00;1.00;;;;;;2266104;55;3766;-87
2023/03/16 07:55:49;812138.00;2.71;1402.30;0.00;0.00;0.62;;;;;10.80;1.00;;;;;;2262184;61;1445;-86
2023/03/16 07:58:17;618635.00;2.06;1066.41;0.00;0.00;0.62;;;;;10.10;1.00;;;;;;2277195;55;3742;-87
2023/03/16 08:00:45;655871.00;2.19;1130.79;0.00;0.00;0.62;;;;;10.40;1.00;;;;;;2271291;56;3654;-89
2023/03/16 08:03:12;415405.00;1.38;716.29;0.00;0.00;0.62;;;;;9.80;1.00;;;;;;2264046;61;1762;-87
2023/03/16 08:05:42;375121.00;1.25;647.04;0.00;0.00;0.62;;;;;9.90;1.00;;;;;;2264083;61;1151;-87
2023/03/16 08:08:09;241262.00;0.80;416.92;0.00;0.00;0.62;;;;;10.20;1.00;;;;;;2264096;61;1589;-88
2023/03/16 08:10:36;349579.00;1.17;603.14;0.00;0.00;0.62;;;;;10.20;1.00;;;;;;2264217;61;1477;-87
2023/03/16 08:13:04;210541.00;0.70;364.07;0.00;0.00;0.62;;;;;10.60;1.00;;;;;;2264229;61;1909;-87
2023/03/16 08:15:33;235104.00;0.78;406.33;0.00;0.00;0.62;;;;;10.80;1.00;;;;;;2264195;61;925;-87
2023/03/16 08:20:32;654759.00;2.18;1128.87;0.00;0.00;0.62;;;;;11.20;1.00;;;;;;853915;56;3662;-87
2023/03/16 08:23:00;943807.00;3.15;1633.19;9648.00;0.03;17.34;;;;;11.70;1.00;;;;;;2265723;61;1540;-88
2023/03/16 08:25:29;314424.00;1.05;542.71;0.00;0.00;0.62;;;;;11.70;1.00;;;;;;2264225;61;2227;-87
2023/03/16 08:27:58;220887.00;0.74;381.87;0.00;0.00;0.62;;;;;12.00;1.00;;;;;;2264120;61;1617;-87
2023/03/16 08:33:01;187643.00;0.63;324.65;0.00;0.00;0.62;;;;;12.50;1.00;;;;;;2272903;56;1862;-88
2023/03/16 08:35:29;300335.00;1.00;518.50;0.00;0.00;0.62;;;;;12.50;1.00;;;;;;2264003;61;1164;-90
2023/03/16 08:37:56;409082.00;1.36;705.42;0.00;0.00;0.62;;;;;11.70;1.00;;;;;;2263945;61;1001;-87
2023/03/16 08:40:28;313358.00;1.04;540.88;0.00;0.00;0.62;;;;;11.40;1.00;;;;;;2269811;40;3604;-86
2023/03/16 08:42:55;569701.00;1.90;981.93;0.00;0.00;0.62;;;;;11.30;1.00;;;;;;2263830;61;1949;-88
2023/03/16 08:45:22;285137.00;0.95;492.37;0.00;0.00;0.62;;;;;11.60;1.00;;;;;;2264138;61;1096;-88
2023/03/16 08:47:49;341312.00;1.14;588.93;0.00;0.00;0.62;;;;;12.00;1.00;;;;;;2264057;61;1717;-87
2023/03/16 08:50:18;482451.00;1.61;831.62;0.00;0.00;0.62;;;;;12.50;1.00;;;;;;2263943;61;1298;-87
2023/03/16 08:52:45;1614954.00;5.38;2861.35;96146.00;0.32;166.92;;;;;12.20;1.00;;;;;;2264052;61;1920;-88
2023/03/16 08:57:45;2281610.00;7.61;4219.51;229279.00;0.76;396.31;;;;;12.00;1.00;;;;;;2276520;40;3489;-86
2023/03/16 09:02:49;1224788.00;4.08;2135.10;49307.00;0.16;85.99;;;;;11.90;1.00;;;;;;2257325;61;1431;-88
2023/03/16 09:32:49;1015043.00;3.38;1759.13;103311.00;0.34;179.29;;;;;10.30;1.00;;;;;;2266443;61;1960;-88
2023/03/16 09:35:16;642232.00;2.14;1107.20;97058.00;0.32;168.49;;;;;10.20;1.00;;;;;;2264739;61;1776;-88
2023/03/16 10:05:12;1360999.00;4.54;2384.18;108865.00;0.36;188.87;;;;;10.90;1.00;;;;;;2283682;40;3797;-86
2023/03/16 10:07:51;581824.00;1.94;1002.85;44291.00;0.15;77.31;;;;;11.10;1.00;;;;;;2298751;40;3631;-88
2023/03/16 10:17:48;760384.00;2.53;1312.12;0.00;0.00;0.62;;;;;11.20;1.00;;;;;;2266335;61;1397;-86
2023/03/16 10:20:16;370616.00;1.24;639.30;0.00;0.00;0.62;;;;;11.70;1.00;;;;;;2287953;40;3736;-87
2023/03/16 10:30:24;1066153.00;3.55;1850.00;0.00;0.00;0.62;;;;;12.00;1.00;;;;;;2277263;56;3614;-87
2023/03/16 10:35:34;1625172.00;5.42;2880.94;109978.00;0.37;190.79;;;;;12.30;1.00;;;;;;2266463;61;1760;-87
2023/03/16 10:38:01;1660129.00;5.53;2948.22;231944.00;0.77;400.89;;;;;12.60;1.00;;;;;;2264560;61;1673;-87
2023/03/16 10:40:32;1124696.00;3.75;1954.65;130026.00;0.43;225.37;;;;;12.40;1.00;;;;;;2264599;61;1418;-87
2023/03/16 10:45:34;1151254.00;3.84;2002.33;144919.00;0.48;251.05;;;;;12.30;1.00;;;;;;2293525;40;3482;-87
2023/03/16 10:48:12;352577.00;1.18;608.29;97749.00;0.33;169.69;;;;;12.00;1.00;;;;;;2270491;55;3780;-88
2023/03/16 10:58:31;824799.00;2.75;1424.41;0.00;0.00;0.62;;;;;14.30;1.00;;;;;;2266523;61;1354;-89
2023/03/16 11:08:40;616917.00;2.06;1063.44;0.00;0.00;0.62;;;;;14.60;1.00;;;;;;2266401;61;1417;-88
2023/03/16 11:18:50;532355.00;1.77;917.55;0.00;0.00;0.62;;;;;14.70;1.00;;;;;;2262970;61;1267;-87
2023/03/16 11:23:58;571321.00;1.90;984.73;0.00;0.00;0.62;;;;;15.10;1.00;;;;;;2262488;61;1266;-88
2023/03/16 11:26:32;148104.00;0.49;256.54;0.00;0.00;0.62;;;;;15.20;1.00;;;;;;2260224;61;1652;-88
2023/03/16 11:29:08;485733.00;1.62;837.26;0.00;0.00;0.62;;;;;15.10;1.00;;;;;;2315136;56;3772;-89
2023/03/16 12:00:00;522387.00;1.74;900.38;0.00;0.00;0.62;;;;;15.30;1.00;;;;;;2271603;56;1706;-88
2023/03/16 12:07:44;800203.00;2.67;1381.48;0.00;0.00;0.62;;;;;15.70;1.00;;;;;;2265806;61;1445;-88
2023/03/16 12:13:02;1125107.00;3.75;1955.38;92550.00;0.31;160.71;;;;;15.70;1.00;;;;;;2293587;40;3695;-87
2023/03/16 12:25:39;524679.00;1.75;904.32;0.00;0.00;0.62;;;;;16.30;1.00;;;;;;2324981;55;3674;-87
2023/03/16 12:28:27;155882.00;0.52;269.94;0.00;0.00;0.62;;;;;16.30;1.00;;;;;;2268148;61;1601;-89
2023/03/16 12:36:01;691176.00;2.30;1191.94;0.00;0.00;0.62;;;;;16.30;1.00;;;;;;2298483;40;3528;-87
2023/03/16 12:51:05;582279.00;1.94;1003.63;0.00;0.00;0.62;;;;;15.70;1.00;;;;;;1967702;40;3494;-88
2023/03/16 13:26:21;593672.00;1.98;1023.29;0.00;0.00;0.62;;;;;15.90;1.00;;;;;;2274266;55;3701;-85
2023/03/16 13:31:26;748492.00;2.49;1291.44;0.00;0.00;0.62;;;;;16.30;1.00;;;;;;2290262;55;3755;-87
2023/03/16 13:33:58;888256.00;2.96;1535.50;209091.00;0.70;361.57;;;;;16.30;1.00;;;;;;2391095;55;3785;-88
2023/03/16 13:41:30;1846198.00;6.15;3313.15;88116.00;0.29;153.05;;;;;16.20;1.00;;;;;;2299932;56;3657;-86
2023/03/16 13:43:57;1290494.00;4.30;2254.72;137914.00;0.46;238.97;;;;;16.10;1.00;;;;;;2343402;40;3626;-89
2023/03/16 13:49:00;997946.00;3.33;1728.83;93839.00;0.31;162.94;;;;;16.40;1.00;;;;;;2265351;61;1437;-88
2023/03/16 13:51:31;556986.00;1.86;960.00;107260.00;0.36;186.10;;;;;16.80;1.00;;;;;;2263803;61;1718;-88
2023/03/16 13:56:36;1009369.00;3.36;1749.07;97477.00;0.32;169.22;;;;;16.90;1.00;;;;;;2265358;61;1409;-88
2023/03/16 14:06:37;668192.00;2.23;1152.12;13880.00;0.05;24.67;;;;;16.90;1.00;;;;;;2266759;61;1422;-88
2023/03/16 14:09:08;90993.00;0.30;158.02;0.00;0.00;0.62;;;;;17.00;1.00;;;;;;2290117;55;3727;-88
2023/03/16 14:19:19;622834.00;2.08;1073.66;41297.00;0.14;72.13;;;;;16.90;1.00;;;;;;1402967;56;3711;-87
2023/03/16 14:37:17;615405.00;2.05;1060.83;0.00;0.00;0.62;;;;;16.80;1.00;;;;;;2266218;61;1279;-88
2023/03/16 14:39:45;299095.00;1.00;516.36;0.00;0.00;0.62;;;;;16.80;1.00;;;;;;2264417;61;1285;-87
2023/03/16 14:42:21;277183.00;0.92;478.69;0.00;0.00;0.62;;;;;17.00;1.00;;;;;;2283969;40;3545;-87
2023/03/16 14:44:52;279487.00;0.93;482.66;8102.00;0.03;14.66;;;;;17.00;1.00;;;;;;2268568;61;1557;-88
2023/03/16 14:49:53;587164.00;1.96;1012.06;0.00;0.00;0.62;;;;;17.50;1.00;;;;;;2262108;61;1409;-87
2023/03/16 14:52:30;517442.00;1.72;891.86;14324.00;0.05;25.44;;;;;17.40;1.00;;;;;;2260513;61;1772;-88
2023/03/16 14:54:58;210137.00;0.70;363.37;0.00;0.00;0.62;;;;;17.40;1.00;;;;;;2260472;61;1610;-87
2023/03/16 14:57:26;1605565.00;5.35;2843.38;180369.00;0.60;312.13;;;;;17.20;1.00;;;;;;2260373;61;886;-87
2023/03/16 14:59:57;914213.00;3.05;1581.10;99682.00;0.33;173.02;;;;;17.10;1.00;;;;;;2260478;61;1266;-87
2023/03/16 15:04:57;1081926.00;3.61;1878.13;94585.00;0.32;164.22;;;;;17.40;1.00;;;;;;2266147;61;1421;-87
2023/03/16 15:07:29;809738.00;2.70;1398.11;96916.00;0.32;168.25;;;;;17.50;1.00;;;;;;2264322;61;1613;-87